sensor_id;sensor_type;location;lat;lon;timestamp;pressure;altitude;pressure_sealevel;temperature
70668;BMP280;58242;51.250;-1.118;2023-11-21T00:01:40;100184.94;;;16.91
70668;BMP280;58242;51.250;-1.118;2023-11-21T00:04:05;100185.28;;;16.90
70668;BMP280;58242;51.250;-1.118;2023-11-21T00:06:32;100197.19;;;16.89
70668;BMP280;58242;51.250;-1.118;2023-11-21T00:08:58;100191.38;;;16.87
70668;BMP280;58242;51.250;-1.118;2023-11-21T00:11:23;100198.31;;;16.84
70668;BMP280;58242;51.250;-1.118;2023-11-21T00:13:50;100194.38;;;16.82
70668;BMP280;58242;51.250;-1.118;2023-11-21T00:16:15;100208.25;;;16.80
70668;BMP280;58242;51.250;-1.118;2023-11-21T00:18:40;100207.81;;;16.78
70668;BMP280;58242;51.250;-1.118;2023-11-21T00:21:06;100212.81;;;16.77
70668;BMP280;58242;51.250;-1.118;2023-11-21T00:23:31;100202.72;;;16.74
70668;BMP280;58242;51.250;-1.118;2023-11-21T00:25:56;100206.59;;;16.73
70668;BMP280;58242;51.250;-1.118;2023-11-21T00:28:22;100205.34;;;16.70
70668;BMP280;58242;51.250;-1.118;2023-11-21T00:30:47;100226.16;;;16.70
70668;BMP280;58242;51.250;-1.118;2023-11-21T00:33:12;100231.94;;;16.68
70668;BMP280;58242;51.250;-1.118;2023-11-21T00:35:38;100227.69;;;16.67
70668;BMP280;58242;51.250;-1.118;2023-11-21T00:38:03;100229.59;;;16.67
70668;BMP280;58242;51.250;-1.118;2023-11-21T00:40:28;100231.16;;;16.68
70668;BMP280;58242;51.250;-1.118;2023-11-21T00:42:54;100231.16;;;16.68
70668;BMP280;58242;51.250;-1.118;2023-11-21T00:45:21;100227.69;;;16.67
70668;BMP280;58242;51.250;-1.118;2023-11-21T00:47:46;100219.94;;;16.66
70668;BMP280;58242;51.250;-1.118;2023-11-21T00:50:11;100219.53;;;16.64
70668;BMP280;58242;51.250;-1.118;2023-11-21T00:52:37;100224.91;;;16.64
70668;BMP280;58242;51.250;-1.118;2023-11-21T00:55:03;100233.03;;;16.64
70668;BMP280;58242;51.250;-1.118;2023-11-21T00:57:29;100236.84;;;16.63
70668;BMP280;58242;51.250;-1.118;2023-11-21T00:59:54;100238.00;;;16.62
70668;BMP280;58242;51.250;-1.118;2023-11-21T01:02:19;100240.25;;;16.60
70668;BMP280;58242;51.250;-1.118;2023-11-21T01:04:45;100238.34;;;16.60
70668;BMP280;58242;51.250;-1.118;2023-11-21T01:07:10;100239.06;;;16.58
70668;BMP280;58242;51.250;-1.118;2023-11-21T01:09:35;100247.16;;;16.58
70668;BMP280;58242;51.250;-1.118;2023-11-21T01:12:01;100251.78;;;16.57
70668;BMP280;58242;51.250;-1.118;2023-11-21T01:14:26;100253.69;;;16.57
70668;BMP280;58242;51.250;-1.118;2023-11-21T01:16:52;100249.44;;;16.56
70668;BMP280;58242;51.250;-1.118;2023-11-21T01:19:17;100255.22;;;16.54
70668;BMP280;58242;51.250;-1.118;2023-11-21T01:21:43;100257.13;;;16.54
70668;BMP280;58242;51.250;-1.118;2023-11-21T01:24:08;100258.59;;;16.51
70668;BMP280;58242;51.250;-1.118;2023-11-21T01:26:34;100265.16;;;16.50
70668;BMP280;58242;51.250;-1.118;2023-11-21T01:28:59;100258.97;;;16.50
70668;BMP280;58242;51.250;-1.118;2023-11-21T01:31:24;100268.97;;;16.49
70668;BMP280;58242;51.250;-1.118;2023-11-21T01:33:54;100270.09;;;16.48
70668;BMP280;58242;51.250;-1.118;2023-11-21T01:36:20;100268.53;;;16.47
70668;BMP280;58242;51.250;-1.118;2023-11-21T01:38:46;100270.47;;;16.47
70668;BMP280;58242;51.250;-1.118;2023-11-21T01:41:13;100284.72;;;16.47
70668;BMP280;58242;51.250;-1.118;2023-11-21T01:43:39;100282.47;;;16.49
70668;BMP280;58242;51.250;-1.118;2023-11-21T01:46:05;100289.00;;;16.48
70668;BMP280;58242;51.250;-1.118;2023-11-21T01:48:31;100287.44;;;16.47
70668;BMP280;58242;51.250;-1.118;2023-11-21T01:50:57;100291.28;;;16.46
70668;BMP280;58242;51.250;-1.118;2023-11-21T01:53:24;100294.41;;;16.48
70668;BMP280;58242;51.250;-1.118;2023-11-21T01:55:51;100296.31;;;16.48
70668;BMP280;58242;51.250;-1.118;2023-11-21T01:58:16;100300.56;;;16.49
70668;BMP280;58242;51.250;-1.118;2023-11-21T02:00:42;100309.81;;;16.48
70668;BMP280;58242;51.250;-1.118;2023-11-21T02:03:08;100315.63;;;16.50
70668;BMP280;58242;51.250;-1.118;2023-11-21T02:05:35;100313.72;;;16.50
70668;BMP280;58242;51.250;-1.118;2023-11-21T02:08:01;100316.44;;;16.50
70668;BMP280;58242;51.250;-1.118;2023-11-21T02:10:27;100326.84;;;16.52
70668;BMP280;58242;51.250;-1.118;2023-11-21T02:12:54;100330.34;;;16.52
70668;BMP280;58242;51.250;-1.118;2023-11-21T02:15:21;100334.16;;;16.51
70668;BMP280;58242;51.250;-1.118;2023-11-21T02:17:49;100335.31;;;16.50
70668;BMP280;58242;51.250;-1.118;2023-11-21T02:20:17;100334.88;;;16.48
70668;BMP280;58242;51.250;-1.118;2023-11-21T02:22:50;100336.44;;;16.49
70668;BMP280;58242;51.250;-1.118;2023-11-21T02:25:32;100333.31;;;16.47
70668;BMP280;58242;51.250;-1.118;2023-11-21T02:27:59;100340.19;;;16.45
70668;BMP280;58242;51.250;-1.118;2023-11-21T02:30:26;100342.13;;;16.44
70668;BMP280;58242;51.250;-1.118;2023-11-21T02:32:53;100348.63;;;16.43
70668;BMP280;58242;51.250;-1.118;2023-11-21T02:35:19;100338.63;;;16.44
70668;BMP280;58242;51.250;-1.118;2023-11-21T02:37:48;100350.59;;;16.43
70668;BMP280;58242;51.250;-1.118;2023-11-21T02:40:13;100356.72;;;16.43
70668;BMP280;58242;51.250;-1.118;2023-11-21T02:42:42;100360.66;;;16.46
70668;BMP280;58242;51.250;-1.118;2023-11-21T02:45:08;100367.97;;;16.45
70668;BMP280;58242;51.250;-1.118;2023-11-21T02:47:34;100368.03;;;16.49
70668;BMP280;58242;51.250;-1.118;2023-11-21T02:49:59;100370.03;;;16.52
70668;BMP280;58242;51.250;-1.118;2023-11-21T02:52:25;100368.13;;;16.52
70668;BMP280;58242;51.250;-1.118;2023-11-21T02:54:50;100365.84;;;16.54
70668;BMP280;58242;51.250;-1.118;2023-11-21T02:57:16;100377.84;;;16.57
70668;BMP280;58242;51.250;-1.118;2023-11-21T02:59:41;100379.06;;;16.59
70668;BMP280;58242;51.250;-1.118;2023-11-21T03:02:07;100386.38;;;16.59
70668;BMP280;58242;51.250;-1.118;2023-11-21T03:04:33;100381.75;;;16.59
70668;BMP280;58242;51.250;-1.118;2023-11-21T03:07:00;100389.16;;;16.62
70668;BMP280;58242;51.250;-1.118;2023-11-21T03:09:25;100393.78;;;16.61
70668;BMP280;58242;51.250;-1.118;2023-11-21T03:11:52;100401.50;;;16.63
70668;BMP280;58242;51.250;-1.118;2023-11-21T03:14:17;100396.88;;;16.63
70668;BMP280;58242;51.250;-1.118;2023-11-21T03:16:43;100399.59;;;16.63
70668;BMP280;58242;51.250;-1.118;2023-11-21T03:19:10;100400.38;;;16.64
70668;BMP280;58242;51.250;-1.118;2023-11-21T03:21:35;100400.78;;;16.66
70668;BMP280;58242;51.250;-1.118;2023-11-21T03:24:01;100403.84;;;16.64
70668;BMP280;58242;51.250;-1.118;2023-11-21T03:26:27;100398.47;;;16.64
70668;BMP280;58242;51.250;-1.118;2023-11-21T03:28:52;100408.47;;;16.64
70668;BMP280;58242;51.250;-1.118;2023-11-21T03:31:18;100414.28;;;16.66
70668;BMP280;58242;51.250;-1.118;2023-11-21T03:33:45;100408.47;;;16.64
70668;BMP280;58242;51.250;-1.118;2023-11-21T03:36:11;100409.59;;;16.63
70668;BMP280;58242;51.250;-1.118;2023-11-21T03:38:36;100417.69;;;16.63
70668;BMP280;58242;51.250;-1.118;2023-11-21T03:41:02;100408.06;;;16.62
70668;BMP280;58242;51.250;-1.118;2023-11-21T03:43:27;100413.78;;;16.60
70668;BMP280;58242;51.250;-1.118;2023-11-21T03:45:52;100419.97;;;16.61
70668;BMP280;58242;51.250;-1.118;2023-11-21T03:48:18;100419.97;;;16.61
70668;BMP280;58242;51.250;-1.118;2023-11-21T03:50:43;100418.41;;;16.60
70668;BMP280;58242;51.250;-1.118;2023-11-21T03:53:08;100428.06;;;16.61
70668;BMP280;58242;51.250;-1.118;2023-11-21T03:55:33;100437.31;;;16.60
70668;BMP280;58242;51.250;-1.118;2023-11-21T03:57:59;100446.19;;;16.60
70668;BMP280;58242;51.250;-1.118;2023-11-21T04:00:25;100448.53;;;16.62
70668;BMP280;58242;51.250;-1.118;2023-11-21T04:02:52;100449.28;;;16.62
70668;BMP280;58242;51.250;-1.118;2023-11-21T04:05:17;100455.50;;;16.63
70668;BMP280;58242;51.250;-1.118;2023-11-21T04:07:43;100460.09;;;16.62
70668;BMP280;58242;51.250;-1.118;2023-11-21T04:10:08;100463.59;;;16.63
70668;BMP280;58242;51.250;-1.118;2023-11-21T04:12:35;100467.44;;;16.62
70668;BMP280;58242;51.250;-1.118;2023-11-21T04:15:01;100468.56;;;16.61
70668;BMP280;58242;51.250;-1.118;2023-11-21T04:17:26;100465.88;;;16.61
70668;BMP280;58242;51.250;-1.118;2023-11-21T04:19:52;100477.00;;;16.60
70668;BMP280;58242;51.250;-1.118;2023-11-21T04:22:17;100485.88;;;16.60
70668;BMP280;58242;51.250;-1.118;2023-11-21T04:24:42;100487.47;;;16.61
70668;BMP280;58242;51.250;-1.118;2023-11-21T04:27:08;100490.50;;;16.60
70668;BMP280;58242;51.250;-1.118;2023-11-21T04:29:33;100494.31;;;16.59
70668;BMP280;58242;51.250;-1.118;2023-11-21T04:31:58;100503.22;;;16.59
70668;BMP280;58242;51.250;-1.118;2023-11-21T04:34:23;100497.72;;;16.56
70668;BMP280;58242;51.250;-1.118;2023-11-21T04:36:49;100499.22;;;16.53
70668;BMP280;58242;51.250;-1.118;2023-11-21T04:39:15;100500.34;;;16.52
70668;BMP280;58242;51.250;-1.118;2023-11-21T04:41:40;100503.75;;;16.49
70668;BMP280;58242;51.250;-1.118;2023-11-21T04:44:06;100504.09;;;16.48
70668;BMP280;58242;51.250;-1.118;2023-11-21T04:46:31;100500.63;;;16.47
70668;BMP280;58242;51.250;-1.118;2023-11-21T04:48:57;100501.41;;;16.48
70668;BMP280;58242;51.250;-1.118;2023-11-21T04:51:23;100492.53;;;16.47
70668;BMP280;58242;51.250;-1.118;2023-11-21T04:53:48;100496.72;;;16.45
70668;BMP280;58242;51.250;-1.118;2023-11-21T04:56:14;100482.81;;;16.43
70668;BMP280;58242;51.250;-1.118;2023-11-21T04:58:41;100505.16;;;16.43
70668;BMP280;58242;51.250;-1.118;2023-11-21T05:01:07;100495.06;;;16.41
70668;BMP280;58242;51.250;-1.118;2023-11-21T05:03:32;100504.28;;;16.40
70668;BMP280;58242;51.250;-1.118;2023-11-21T05:05:59;100505.06;;;16.40
70668;BMP280;58242;51.250;-1.118;2023-11-21T05:08:25;100523.19;;;16.40
70668;BMP280;58242;51.250;-1.118;2023-11-21T05:10:51;100528.16;;;16.38
70668;BMP280;58242;51.250;-1.118;2023-11-21T05:13:17;100540.16;;;16.40
70668;BMP280;58242;51.250;-1.118;2023-11-21T05:15:42;100537.81;;;16.39
70668;BMP280;58242;51.250;-1.118;2023-11-21T05:18:08;100544.00;;;16.39
70668;BMP280;58242;51.250;-1.118;2023-11-21T05:20:33;100544.34;;;16.38
70668;BMP280;58242;51.250;-1.118;2023-11-21T05:22:58;100550.53;;;16.38
70668;BMP280;58242;51.250;-1.118;2023-11-21T05:25:24;100555.94;;;16.38
70668;BMP280;58242;51.250;-1.118;2023-11-21T05:27:49;100569.41;;;16.38
70668;BMP280;58242;51.250;-1.118;2023-11-21T05:30:14;100569.75;;;16.37
70668;BMP280;58242;51.250;-1.118;2023-11-21T05:32:41;100581.66;;;16.36
70668;BMP280;58242;51.250;-1.118;2023-11-21T05:35:09;100585.53;;;16.35
70668;BMP280;58242;51.250;-1.118;2023-11-21T05:37:39;100590.13;;;16.34
70668;BMP280;58242;51.250;-1.118;2023-11-21T05:40:05;100607.13;;;16.35
70668;BMP280;58242;51.250;-1.118;2023-11-21T05:42:34;100600.56;;;16.36
70668;BMP280;58242;51.250;-1.118;2023-11-21T05:45:00;100603.53;;;16.31
70668;BMP280;58242;51.250;-1.118;2023-11-21T05:47:45;100607.69;;;16.28
70668;BMP280;58242;51.250;-1.118;2023-11-21T05:50:13;100614.56;;;16.26
70668;BMP280;58242;51.250;-1.118;2023-11-21T05:52:43;100624.94;;;16.24
70668;BMP280;58242;51.250;-1.118;2023-11-21T05:55:09;100626.06;;;16.23
70668;BMP280;58242;51.250;-1.118;2023-11-21T05:57:35;100631.47;;;16.23
70668;BMP280;58242;51.250;-1.118;2023-11-21T06:00:03;100636.50;;;16.25
70668;BMP280;58242;51.250;-1.118;2023-11-21T06:02:30;100640.69;;;16.22
70668;BMP280;58242;51.250;-1.118;2023-11-21T06:04:55;100638.78;;;16.23
70668;BMP280;58242;51.250;-1.118;2023-11-21T06:07:21;100642.97;;;16.20
70668;BMP280;58242;51.250;-1.118;2023-11-21T06:09:46;100645.66;;;16.20
70668;BMP280;58242;51.250;-1.118;2023-11-21T06:12:13;100651.06;;;16.20
70668;BMP280;58242;51.250;-1.118;2023-11-21T06:14:39;100657.56;;;16.19
70668;BMP280;58242;51.250;-1.118;2023-11-21T06:17:04;100657.13;;;16.17
70668;BMP280;58242;51.250;-1.118;2023-11-21T06:19:29;100660.50;;;16.14
70668;BMP280;58242;51.250;-1.118;2023-11-21T06:21:54;100660.88;;;16.13
70668;BMP280;58242;51.250;-1.118;2023-11-21T06:24:20;100662.31;;;16.10
70668;BMP280;58242;51.250;-1.118;2023-11-21T06:26:46;100653.81;;;16.09
70668;BMP280;58242;51.250;-1.118;2023-11-21T06:29:13;100656.03;;;16.07
70668;BMP280;58242;51.250;-1.118;2023-11-21T06:31:39;100659.88;;;16.06
70668;BMP280;58242;51.250;-1.118;2023-11-21T06:34:06;100659.88;;;16.06
70668;BMP280;58242;51.250;-1.118;2023-11-21T06:36:31;100659.78;;;16.02
70668;BMP280;58242;51.250;-1.118;2023-11-21T06:38:56;100669.00;;;16.01
70668;BMP280;58242;51.250;-1.118;2023-11-21T06:41:22;100670.94;;;16.01
70668;BMP280;58242;51.250;-1.118;2023-11-21T06:43:47;100677.44;;;16.00
70668;BMP280;58242;51.250;-1.118;2023-11-21T06:46:13;100689.34;;;15.99
70668;BMP280;58242;51.250;-1.118;2023-11-21T06:48:43;100693.63;;;16.00
70668;BMP280;58242;51.250;-1.118;2023-11-21T06:51:08;100703.63;;;15.99
70668;BMP280;58242;51.250;-1.118;2023-11-21T06:53:33;100713.63;;;15.99
70668;BMP280;58242;51.250;-1.118;2023-11-21T06:55:59;100712.81;;;15.98
70668;BMP280;58242;51.250;-1.118;2023-11-21T06:58:24;100713.19;;;15.97
70668;BMP280;58242;51.250;-1.118;2023-11-21T07:00:49;100722.06;;;15.97
70668;BMP280;58242;51.250;-1.118;2023-11-21T07:03:15;100712.41;;;15.96
70668;BMP280;58242;51.250;-1.118;2023-11-21T07:05:40;100730.50;;;15.96
70668;BMP280;58242;51.250;-1.118;2023-11-21T07:08:06;100729.69;;;15.95
70668;BMP280;58242;51.250;-1.118;2023-11-21T07:10:32;100727.38;;;15.94
70668;BMP280;58242;51.250;-1.118;2023-11-21T07:12:58;100737.00;;;15.95
70668;BMP280;58242;51.250;-1.118;2023-11-21T07:15:23;100739.28;;;15.93
70668;BMP280;58242;51.250;-1.118;2023-11-21T07:17:49;100740.34;;;15.92
70668;BMP280;58242;51.250;-1.118;2023-11-21T07:20:15;100745.75;;;15.92
70668;BMP280;58242;51.250;-1.118;2023-11-21T07:22:42;100750.34;;;15.91
70668;BMP280;58242;51.250;-1.118;2023-11-21T07:25:07;100757.66;;;15.91
70668;BMP280;58242;51.250;-1.118;2023-11-21T07:27:34;100762.63;;;15.89
70668;BMP280;58242;51.250;-1.118;2023-11-21T07:30:01;100761.03;;;15.88
70668;BMP280;58242;51.250;-1.118;2023-11-21T07:32:29;100767.91;;;15.86
70668;BMP280;58242;51.250;-1.118;2023-11-21T07:34:55;100780.16;;;15.83
70668;BMP280;58242;51.250;-1.118;2023-11-21T07:37:22;100787.47;;;15.83
70668;BMP280;58242;51.250;-1.118;2023-11-21T07:39:47;100793.19;;;15.81
70668;BMP280;58242;51.250;-1.118;2023-11-21T07:42:13;100792.41;;;15.81
70668;BMP280;58242;51.250;-1.118;2023-11-21T07:44:38;100788.13;;;15.80
70668;BMP280;58242;51.250;-1.118;2023-11-21T07:47:04;100791.63;;;15.80
70668;BMP280;58242;51.250;-1.118;2023-11-21T07:49:29;100783.88;;;15.79
70668;BMP280;58242;51.250;-1.118;2023-11-21T07:51:55;100795.78;;;15.78
70668;BMP280;58242;51.250;-1.118;2023-11-21T07:54:20;100811.16;;;15.77
70668;BMP280;58242;51.250;-1.118;2023-11-21T07:56:46;100805.78;;;15.77
70668;BMP280;58242;51.250;-1.118;2023-11-21T07:59:12;100806.91;;;15.76
70668;BMP280;58242;51.250;-1.118;2023-11-21T08:01:37;100820.84;;;15.78
70668;BMP280;58242;51.250;-1.118;2023-11-21T08:04:03;100826.22;;;15.78
70668;BMP280;58242;51.250;-1.118;2023-11-21T08:06:29;100828.25;;;15.81
70668;BMP280;58242;51.250;-1.118;2023-11-21T08:08:55;100829.03;;;15.82
70668;BMP280;58242;51.250;-1.118;2023-11-21T08:11:21;100835.66;;;15.84
70668;BMP280;58242;51.250;-1.118;2023-11-21T08:13:47;100840.72;;;15.86
70668;BMP280;58242;51.250;-1.118;2023-11-21T08:16:12;100845.75;;;15.87
70668;BMP280;58242;51.250;-1.118;2023-11-21T08:18:37;100848.91;;;15.89
70668;BMP280;58242;51.250;-1.118;2023-11-21T08:21:03;100858.13;;;15.88
70668;BMP280;58242;51.250;-1.118;2023-11-21T08:23:29;100855.88;;;15.90
70668;BMP280;58242;51.250;-1.118;2023-11-21T08:25:54;100856.63;;;15.91
70668;BMP280;58242;51.250;-1.118;2023-11-21T08:28:21;100863.63;;;15.91
70668;BMP280;58242;51.250;-1.118;2023-11-21T08:30:51;100865.53;;;15.91
70668;BMP280;58242;51.250;-1.118;2023-11-21T08:33:17;100869.00;;;15.91
70668;BMP280;58242;51.250;-1.118;2023-11-21T08:35:42;100865.22;;;15.92
70668;BMP280;58242;51.250;-1.118;2023-11-21T08:38:08;100874.09;;;15.93
70668;BMP280;58242;51.250;-1.118;2023-11-21T08:40:35;100871.41;;;15.93
70668;BMP280;58242;51.250;-1.118;2023-11-21T08:43:00;100871.41;;;15.93
70668;BMP280;58242;51.250;-1.118;2023-11-21T08:45:25;100878.38;;;15.94
70668;BMP280;58242;51.250;-1.118;2023-11-21T08:47:51;100868.03;;;15.96
70668;BMP280;58242;51.250;-1.118;2023-11-21T08:50:16;100878.91;;;15.99
70668;BMP280;58242;51.250;-1.118;2023-11-21T08:52:42;100874.00;;;16.01
70668;BMP280;58242;51.250;-1.118;2023-11-21T08:55:08;100881.81;;;16.06
70668;BMP280;58242;51.250;-1.118;2023-11-21T08:57:35;100887.31;;;16.09
70668;BMP280;58242;51.250;-1.118;2023-11-21T09:00:01;100886.66;;;16.12
70668;BMP280;58242;51.250;-1.118;2023-11-21T09:02:26;100900.25;;;16.16
70668;BMP280;58242;51.250;-1.118;2023-11-21T09:04:52;100898.69;;;16.15
70668;BMP280;58242;51.250;-1.118;2023-11-21T09:07:20;100907.56;;;16.15
70668;BMP280;58242;51.250;-1.118;2023-11-21T09:09:46;100898.69;;;16.15
70668;BMP280;58242;51.250;-1.118;2023-11-21T09:12:12;100913.75;;;16.16
70668;BMP280;58242;51.250;-1.118;2023-11-21T09:14:38;100904.53;;;16.17
70668;BMP280;58242;51.250;-1.118;2023-11-21T09:17:04;100904.53;;;16.17
70668;BMP280;58242;51.250;-1.118;2023-11-21T09:19:32;100906.09;;;16.18
70668;BMP280;58242;51.250;-1.118;2023-11-21T09:21:58;100910.03;;;16.20
70668;BMP280;58242;51.250;-1.118;2023-11-21T09:24:23;100910.38;;;16.19
70668;BMP280;58242;51.250;-1.118;2023-11-21T09:26:48;100911.47;;;16.18
70668;BMP280;58242;51.250;-1.118;2023-11-21T09:29:14;100927.34;;;16.19
70668;BMP280;58242;51.250;-1.118;2023-11-21T09:31:39;100914.97;;;16.18
70668;BMP280;58242;51.250;-1.118;2023-11-21T09:34:05;100923.84;;;16.19
70668;BMP280;58242;51.250;-1.118;2023-11-21T09:36:31;100931.94;;;16.19
70668;BMP280;58242;51.250;-1.118;2023-11-21T09:38:58;100926.22;;;16.20
70668;BMP280;58242;51.250;-1.118;2023-11-21T09:41:34;100927.78;;;16.21
70668;BMP280;58242;51.250;-1.118;2023-11-21T09:44:08;100929.69;;;16.21
70668;BMP280;58242;51.250;-1.118;2023-11-21T09:46:37;100938.56;;;16.21
70668;BMP280;58242;51.250;-1.118;2023-11-21T09:49:05;100948.56;;;16.21
70668;BMP280;58242;51.250;-1.118;2023-11-21T09:51:39;100943.19;;;16.21
70668;BMP280;58242;51.250;-1.118;2023-11-21T09:54:06;100954.13;;;16.12
70668;BMP280;58242;51.250;-1.118;2023-11-21T09:56:34;100951.53;;;16.16
70668;BMP280;58242;51.250;-1.118;2023-11-21T09:59:01;100951.94;;;16.18
70668;BMP280;58242;51.250;-1.118;2023-11-21T10:01:36;100961.63;;;16.19
70668;BMP280;58242;51.250;-1.118;2023-11-21T10:04:01;100958.94;;;16.19
70668;BMP280;58242;51.250;-1.118;2023-11-21T10:06:28;100964.75;;;16.21
70668;BMP280;58242;51.250;-1.118;2023-11-21T10:08:54;100972.19;;;16.24
70668;BMP280;58242;51.250;-1.118;2023-11-21T10:11:24;100975.34;;;16.26
70668;BMP280;58242;51.250;-1.118;2023-11-21T10:13:52;100979.63;;;16.26
70668;BMP280;58242;51.250;-1.118;2023-11-21T10:16:19;100977.38;;;16.17
70668;BMP280;58242;51.250;-1.118;2023-11-21T10:18:47;100984.13;;;16.23
70668;BMP280;58242;51.250;-1.118;2023-11-21T10:21:14;100983.78;;;16.24
70668;BMP280;58242;51.250;-1.118;2023-11-21T10:23:40;100983.88;;;16.27
70668;BMP280;58242;51.250;-1.118;2023-11-21T10:26:06;100983.63;;;16.32
70668;BMP280;58242;51.250;-1.118;2023-11-21T10:28:36;100970.38;;;16.39
70668;BMP280;58242;51.250;-1.118;2023-11-21T10:31:06;100976.69;;;16.43
70668;BMP280;58242;51.250;-1.118;2023-11-21T10:33:32;100974.09;;;16.46
70668;BMP280;58242;51.250;-1.118;2023-11-21T10:35:57;100977.22;;;16.48
70668;BMP280;58242;51.250;-1.118;2023-11-21T10:38:23;100985.78;;;16.50
70668;BMP280;58242;51.250;-1.118;2023-11-21T10:40:49;100986.91;;;16.49
70668;BMP280;58242;51.250;-1.118;2023-11-21T10:43:16;100985.78;;;16.50
70668;BMP280;58242;51.250;-1.118;2023-11-21T10:45:43;100997.00;;;16.52
70668;BMP280;58242;51.250;-1.118;2023-11-21T10:48:15;100995.09;;;16.53
70668;BMP280;58242;51.250;-1.118;2023-11-21T10:50:41;100995.88;;;16.53
70668;BMP280;58242;51.250;-1.118;2023-11-21T10:53:07;100998.69;;;16.57
70668;BMP280;58242;51.250;-1.118;2023-11-21T10:55:33;101002.63;;;16.59
70668;BMP280;58242;51.250;-1.118;2023-11-21T10:58:01;101000.38;;;16.61
70668;BMP280;58242;51.250;-1.118;2023-11-21T11:00:30;100991.16;;;16.62
70668;BMP280;58242;51.250;-1.118;2023-11-21T11:02:56;100997.31;;;16.62
70668;BMP280;58242;51.250;-1.118;2023-11-21T11:05:23;101001.69;;;16.67
70668;BMP280;58242;51.250;-1.118;2023-11-21T11:07:56;100995.97;;;16.68
70668;BMP280;58242;51.250;-1.118;2023-11-21T11:10:25;100996.41;;;16.70
70668;BMP280;58242;51.250;-1.118;2023-11-21T11:12:53;100999.56;;;16.72
70668;BMP280;58242;51.250;-1.118;2023-11-21T11:15:19;100989.97;;;16.75
70668;BMP280;58242;51.250;-1.118;2023-11-21T11:17:45;101004.28;;;16.75
70668;BMP280;58242;51.250;-1.118;2023-11-21T11:20:13;100998.19;;;16.78
70668;BMP280;58242;51.250;-1.118;2023-11-21T11:22:43;101003.59;;;16.78
70668;BMP280;58242;51.250;-1.118;2023-11-21T11:28:07;100998.97;;;16.78
70668;BMP280;58242;51.250;-1.118;2023-11-21T11:38:47;101006.06;;;16.83
70668;BMP280;58242;51.250;-1.118;2023-11-21T11:41:27;101011.22;;;16.88
70668;BMP280;58242;51.250;-1.118;2023-11-21T11:43:54;101016.31;;;16.89
70668;BMP280;58242;51.250;-1.118;2023-11-21T11:46:19;101017.19;;;16.93
70668;BMP280;58242;51.250;-1.118;2023-11-21T11:48:48;101025.75;;;16.95
70668;BMP280;58242;51.250;-1.118;2023-11-21T11:51:15;101031.16;;;16.95
70668;BMP280;58242;51.250;-1.118;2023-11-21T11:53:46;101028.88;;;16.97
70668;BMP280;58242;51.250;-1.118;2023-11-21T11:56:28;101033.28;;;17.01
70668;BMP280;58242;51.250;-1.118;2023-11-21T11:58:57;101029.09;;;17.04
70668;BMP280;58242;51.250;-1.118;2023-11-21T12:01:24;101030.66;;;17.05
70668;BMP280;58242;51.250;-1.118;2023-11-21T12:06:51;101032.34;;;17.09
70668;BMP280;58242;51.250;-1.118;2023-11-21T12:09:21;101029.41;;;17.14
70668;BMP280;58242;51.250;-1.118;2023-11-21T12:11:48;101033.44;;;17.20
70668;BMP280;58242;51.250;-1.118;2023-11-21T12:14:14;101038.16;;;17.23
70668;BMP280;58242;51.250;-1.118;2023-11-21T12:16:40;101034.00;;;17.25
70668;BMP280;58242;51.250;-1.118;2023-11-21T12:19:05;101049.19;;;17.29
70668;BMP280;58242;51.250;-1.118;2023-11-21T12:21:31;101048.59;;;17.36
70668;BMP280;58242;51.250;-1.118;2023-11-21T12:23:57;101060.38;;;17.43
70668;BMP280;58242;51.250;-1.118;2023-11-21T12:26:24;101065.88;;;17.46
70668;BMP280;58242;51.250;-1.118;2023-11-21T12:28:53;101066.75;;;17.50
70668;BMP280;58242;51.250;-1.118;2023-11-21T12:31:24;101066.44;;;17.52
70668;BMP280;58242;51.250;-1.118;2023-11-21T12:33:50;101064.50;;;17.52
70668;BMP280;58242;51.250;-1.118;2023-11-21T12:36:16;101065.28;;;17.53
70668;BMP280;58242;51.250;-1.118;2023-11-21T12:38:42;101069.91;;;17.52
70668;BMP280;58242;51.250;-1.118;2023-11-21T12:41:10;101066.44;;;17.52
70668;BMP280;58242;51.250;-1.118;2023-11-21T12:43:36;101068.78;;;17.53
70668;BMP280;58242;51.250;-1.118;2023-11-21T12:46:13;101084.75;;;17.58
70668;BMP280;58242;51.250;-1.118;2023-11-21T12:48:39;101087.88;;;17.60
70668;BMP280;58242;51.250;-1.118;2023-11-21T12:51:09;101091.84;;;17.63
70668;BMP280;58242;51.250;-1.118;2023-11-21T12:53:34;101090.59;;;17.60
70668;BMP280;58242;51.250;-1.118;2023-11-21T12:56:10;101097.47;;;17.58
70668;BMP280;58242;51.250;-1.118;2023-11-21T12:58:37;101091.19;;;17.54
70668;BMP280;58242;51.250;-1.118;2023-11-21T13:01:04;101102.38;;;17.52
70668;BMP280;58242;51.250;-1.118;2023-11-21T13:03:30;101103.81;;;17.50
70668;BMP280;58242;51.250;-1.118;2023-11-21T13:05:56;101113.50;;;17.51
70668;BMP280;58242;51.250;-1.118;2023-11-21T13:08:24;101112.28;;;17.48
70668;BMP280;58242;51.250;-1.118;2023-11-21T13:10:53;101110.72;;;17.47
70668;BMP280;58242;51.250;-1.118;2023-11-21T13:13:20;101104.84;;;17.46
70668;BMP280;58242;51.250;-1.118;2023-11-21T13:15:56;101106.00;;;17.45
70668;BMP280;58242;51.250;-1.118;2023-11-21T13:18:25;101115.22;;;17.44
70668;BMP280;58242;51.250;-1.118;2023-11-21T13:20:57;101110.16;;;17.42
70668;BMP280;58242;51.250;-1.118;2023-11-21T13:23:23;101115.13;;;17.40
70668;BMP280;58242;51.250;-1.118;2023-11-21T13:25:49;101116.59;;;17.38
70668;BMP280;58242;51.250;-1.118;2023-11-21T13:28:15;101109.97;;;17.35
70668;BMP280;58242;51.250;-1.118;2023-11-21T13:30:41;101123.47;;;17.35
70668;BMP280;58242;51.250;-1.118;2023-11-21T13:33:07;101110.41;;;17.37
70668;BMP280;58242;51.250;-1.118;2023-11-21T13:35:37;101120.88;;;17.39
70668;BMP280;58242;51.250;-1.118;2023-11-21T13:38:10;101123.56;;;17.39
70668;BMP280;58242;51.250;-1.118;2023-11-21T13:40:38;101115.91;;;17.41
70668;BMP280;58242;51.250;-1.118;2023-11-21T13:43:12;101124.38;;;17.39
70668;BMP280;58242;51.250;-1.118;2023-11-21T13:45:43;101124.38;;;17.39
70668;BMP280;58242;51.250;-1.118;2023-11-21T13:48:09;101122.44;;;17.40
70668;BMP280;58242;51.250;-1.118;2023-11-21T13:50:43;101126.03;;;17.44
70668;BMP280;58242;51.250;-1.118;2023-11-21T13:53:24;101132.56;;;17.43
70668;BMP280;58242;51.250;-1.118;2023-11-21T13:55:55;101132.25;;;17.44